sensor_id;sensor_type;location;lat;lon;timestamp;P1;durP1;ratioP1;P2;durP2;ratioP2
28934;SDS011;16044;52.726;-2.108;2023-08-20T00:02:17;9.82;;;1.80;;
28934;SDS011;16044;52.726;-2.108;2023-08-20T00:04:48;5.30;;;1.52;;
28934;SDS011;16044;52.726;-2.108;2023-08-20T00:07:19;6.57;;;1.73;;
28934;SDS011;16044;52.726;-2.108;2023-08-20T00:09:53;12.35;;;1.98;;
28934;SDS011;16044;52.726;-2.108;2023-08-20T00:12:24;9.25;;;1.85;;
28934;SDS011;16044;52.726;-2.108;2023-08-20T00:14:55;8.00;;;1.90;;
28934;SDS011;16044;52.726;-2.108;2023-08-20T00:17:32;8.50;;;2.08;;
28934;SDS011;16044;52.726;-2.108;2023-08-20T00:20:04;7.25;;;1.55;;
28934;SDS011;16044;52.726;-2.108;2023-08-20T00:22:39;11.35;;;2.22;;
28934;SDS011;16044;52.726;-2.108;2023-08-20T00:25:15;7.47;;;1.63;;
28934;SDS011;16044;52.726;-2.108;2023-08-20T00:27:47;7.70;;;1.92;;
28934;SDS011;16044;52.726;-2.108;2023-08-20T00:30:17;7.35;;;1.80;;
28934;SDS011;16044;52.726;-2.108;2023-08-20T00:32:48;8.20;;;1.80;;
28934;SDS011;16044;52.726;-2.108;2023-08-20T00:35:18;9.57;;;1.83;;
28934;SDS011;16044;52.726;-2.108;2023-08-20T00:37:49;10.80;;;2.10;;
28934;SDS011;16044;52.726;-2.108;2023-08-20T00:40:22;12.77;;;2.67;;
28934;SDS011;16044;52.726;-2.108;2023-08-20T00:42:52;10.25;;;2.33;;
28934;SDS011;16044;52.726;-2.108;2023-08-20T00:45:23;7.13;;;1.98;;
28934;SDS011;16044;52.726;-2.108;2023-08-20T00:47:54;9.05;;;2.53;;
28934;SDS011;16044;52.726;-2.108;2023-08-20T00:50:24;10.45;;;2.70;;
28934;SDS011;16044;52.726;-2.108;2023-08-20T00:52:55;8.55;;;2.58;;
28934;SDS011;16044;52.726;-2.108;2023-08-20T00:55:28;12.40;;;2.72;;
28934;SDS011;16044;52.726;-2.108;2023-08-20T00:57:59;10.30;;;2.80;;
28934;SDS011;16044;52.726;-2.108;2023-08-20T01:00:30;11.52;;;2.55;;
28934;SDS011;16044;52.726;-2.108;2023-08-20T01:03:00;10.32;;;2.70;;
28934;SDS011;16044;52.726;-2.108;2023-08-20T01:05:31;6.75;;;2.60;;
28934;SDS011;16044;52.726;-2.108;2023-08-20T01:08:13;10.18;;;2.70;;
28934;SDS011;16044;52.726;-2.108;2023-08-20T01:11:01;8.88;;;2.80;;
28934;SDS011;16044;52.726;-2.108;2023-08-20T01:13:37;11.15;;;3.03;;
28934;SDS011;16044;52.726;-2.108;2023-08-20T01:16:08;10.25;;;3.00;;
28934;SDS011;16044;52.726;-2.108;2023-08-20T01:18:38;11.00;;;3.50;;
28934;SDS011;16044;52.726;-2.108;2023-08-20T01:21:11;10.75;;;3.00;;
28934;SDS011;16044;52.726;-2.108;2023-08-20T01:24:05;13.07;;;3.17;;
28934;SDS011;16044;52.726;-2.108;2023-08-20T01:27:00;7.38;;;2.80;;
28934;SDS011;16044;52.726;-2.108;2023-08-20T01:29:42;9.38;;;2.70;;
28934;SDS011;16044;52.726;-2.108;2023-08-20T01:32:13;12.60;;;2.92;;
28934;SDS011;16044;52.726;-2.108;2023-08-20T01:34:44;11.75;;;3.30;;
28934;SDS011;16044;52.726;-2.108;2023-08-20T01:37:15;11.93;;;2.40;;
28934;SDS011;16044;52.726;-2.108;2023-08-20T01:39:45;10.93;;;2.88;;
28934;SDS011;16044;52.726;-2.108;2023-08-20T01:42:16;11.00;;;2.63;;
28934;SDS011;16044;52.726;-2.108;2023-08-20T01:44:49;9.95;;;2.80;;
28934;SDS011;16044;52.726;-2.108;2023-08-20T01:47:19;7.97;;;2.30;;
28934;SDS011;16044;52.726;-2.108;2023-08-20T01:49:49;11.05;;;3.03;;
28934;SDS011;16044;52.726;-2.108;2023-08-20T01:52:19;7.93;;;2.40;;
28934;SDS011;16044;52.726;-2.108;2023-08-20T01:54:50;13.82;;;3.35;;
28934;SDS011;16044;52.726;-2.108;2023-08-20T01:57:21;9.85;;;2.63;;
28934;SDS011;16044;52.726;-2.108;2023-08-20T01:59:54;9.82;;;2.50;;
28934;SDS011;16044;52.726;-2.108;2023-08-20T02:02:25;11.35;;;2.65;;
28934;SDS011;16044;52.726;-2.108;2023-08-20T02:04:55;10.63;;;2.92;;
28934;SDS011;16044;52.726;-2.108;2023-08-20T02:07:26;11.68;;;2.70;;
28934;SDS011;16044;52.726;-2.108;2023-08-20T02:09:56;13.57;;;3.03;;
28934;SDS011;16044;52.726;-2.108;2023-08-20T02:12:26;15.68;;;2.92;;
28934;SDS011;16044;52.726;-2.108;2023-08-20T02:15:00;11.02;;;2.47;;
28934;SDS011;16044;52.726;-2.108;2023-08-20T02:17:30;15.65;;;3.03;;
28934;SDS011;16044;52.726;-2.108;2023-08-20T02:20:03;14.07;;;2.63;;
28934;SDS011;16044;52.726;-2.108;2023-08-20T02:22:36;12.18;;;2.50;;
28934;SDS011;16044;52.726;-2.108;2023-08-20T02:25:07;11.55;;;2.60;;
28934;SDS011;16044;52.726;-2.108;2023-08-20T02:27:38;13.23;;;2.90;;
28934;SDS011;16044;52.726;-2.108;2023-08-20T02:30:11;15.32;;;3.28;;
28934;SDS011;16044;52.726;-2.108;2023-08-20T02:32:42;12.05;;;2.75;;
28934;SDS011;16044;52.726;-2.108;2023-08-20T02:35:13;15.23;;;2.95;;
28934;SDS011;16044;52.726;-2.108;2023-08-20T02:37:43;14.65;;;2.60;;
28934;SDS011;16044;52.726;-2.108;2023-08-20T02:40:14;17.98;;;2.85;;
28934;SDS011;16044;52.726;-2.108;2023-08-20T02:42:44;10.95;;;2.60;;
28934;SDS011;16044;52.726;-2.108;2023-08-20T02:45:17;15.07;;;2.80;;
28934;SDS011;16044;52.726;-2.108;2023-08-20T02:47:47;11.77;;;2.55;;
28934;SDS011;16044;52.726;-2.108;2023-08-20T02:50:18;10.48;;;2.50;;
28934;SDS011;16044;52.726;-2.108;2023-08-20T02:52:48;10.73;;;2.60;;
28934;SDS011;16044;52.726;-2.108;2023-08-20T02:55:18;11.70;;;2.55;;
28934;SDS011;16044;52.726;-2.108;2023-08-20T02:57:49;15.00;;;3.28;;
28934;SDS011;16044;52.726;-2.108;2023-08-20T03:00:21;15.93;;;2.90;;
28934;SDS011;16044;52.726;-2.108;2023-08-20T03:02:52;13.98;;;2.75;;
28934;SDS011;16044;52.726;-2.108;2023-08-20T03:05:23;12.73;;;2.70;;
28934;SDS011;16044;52.726;-2.108;2023-08-20T03:07:53;13.50;;;2.53;;
28934;SDS011;16044;52.726;-2.108;2023-08-20T03:10:23;10.57;;;2.53;;
28934;SDS011;16044;52.726;-2.108;2023-08-20T03:12:54;13.20;;;2.60;;
28934;SDS011;16044;52.726;-2.108;2023-08-20T03:15:26;15.90;;;3.13;;
28934;SDS011;16044;52.726;-2.108;2023-08-20T03:17:57;13.88;;;3.28;;
28934;SDS011;16044;52.726;-2.108;2023-08-20T03:20:27;14.82;;;3.20;;
28934;SDS011;16044;52.726;-2.108;2023-08-20T03:22:58;14.43;;;2.92;;
28934;SDS011;16044;52.726;-2.108;2023-08-20T03:25:28;10.93;;;2.60;;
28934;SDS011;16044;52.726;-2.108;2023-08-20T03:27:59;13.60;;;2.80;;
28934;SDS011;16044;52.726;-2.108;2023-08-20T03:30:32;15.32;;;3.10;;
28934;SDS011;16044;52.726;-2.108;2023-08-20T03:33:04;13.70;;;2.88;;
28934;SDS011;16044;52.726;-2.108;2023-08-20T03:35:34;13.93;;;3.22;;
28934;SDS011;16044;52.726;-2.108;2023-08-20T03:38:04;14.02;;;2.80;;
28934;SDS011;16044;52.726;-2.108;2023-08-20T03:40:35;12.70;;;2.40;;
28934;SDS011;16044;52.726;-2.108;2023-08-20T03:43:05;13.88;;;3.00;;
28934;SDS011;16044;52.726;-2.108;2023-08-20T03:45:38;15.50;;;3.05;;
28934;SDS011;16044;52.726;-2.108;2023-08-20T03:48:08;14.43;;;2.95;;
28934;SDS011;16044;52.726;-2.108;2023-08-20T03:50:38;13.43;;;3.05;;
28934;SDS011;16044;52.726;-2.108;2023-08-20T03:53:09;16.77;;;2.78;;
28934;SDS011;16044;52.726;-2.108;2023-08-20T03:55:39;13.77;;;2.60;;
28934;SDS011;16044;52.726;-2.108;2023-08-20T03:58:09;12.85;;;2.90;;
28934;SDS011;16044;52.726;-2.108;2023-08-20T04:00:42;13.45;;;3.17;;
28934;SDS011;16044;52.726;-2.108;2023-08-20T04:03:13;14.75;;;3.00;;
28934;SDS011;16044;52.726;-2.108;2023-08-20T04:05:46;16.90;;;3.17;;
28934;SDS011;16044;52.726;-2.108;2023-08-20T04:08:16;16.63;;;2.95;;
28934;SDS011;16044;52.726;-2.108;2023-08-20T04:10:47;17.27;;;3.10;;
28934;SDS011;16044;52.726;-2.108;2023-08-20T04:13:17;12.98;;;2.60;;
28934;SDS011;16044;52.726;-2.108;2023-08-20T04:15:51;9.27;;;2.53;;
28934;SDS011;16044;52.726;-2.108;2023-08-20T04:18:21;16.33;;;3.30;;
28934;SDS011;16044;52.726;-2.108;2023-08-20T04:20:52;15.75;;;3.08;;
28934;SDS011;16044;52.726;-2.108;2023-08-20T04:23:24;17.33;;;3.45;;
28934;SDS011;16044;52.726;-2.108;2023-08-20T04:25:54;13.15;;;3.47;;
28934;SDS011;16044;52.726;-2.108;2023-08-20T04:28:25;19.42;;;3.90;;
28934;SDS011;16044;52.726;-2.108;2023-08-20T04:30:58;13.55;;;3.38;;
28934;SDS011;16044;52.726;-2.108;2023-08-20T04:33:29;14.80;;;3.22;;
28934;SDS011;16044;52.726;-2.108;2023-08-20T04:35:59;20.17;;;3.58;;
28934;SDS011;16044;52.726;-2.108;2023-08-20T04:38:29;18.05;;;3.40;;
28934;SDS011;16044;52.726;-2.108;2023-08-20T04:41:00;20.20;;;3.80;;
28934;SDS011;16044;52.726;-2.108;2023-08-20T04:43:30;19.60;;;4.07;;
28934;SDS011;16044;52.726;-2.108;2023-08-20T04:46:03;12.55;;;3.08;;
28934;SDS011;16044;52.726;-2.108;2023-08-20T04:48:33;16.92;;;3.22;;
28934;SDS011;16044;52.726;-2.108;2023-08-20T04:51:05;15.52;;;3.53;;
28934;SDS011;16044;52.726;-2.108;2023-08-20T04:53:35;14.65;;;3.35;;
28934;SDS011;16044;52.726;-2.108;2023-08-20T04:56:05;18.52;;;3.83;;
28934;SDS011;16044;52.726;-2.108;2023-08-20T04:58:36;15.43;;;3.28;;
28934;SDS011;16044;52.726;-2.108;2023-08-20T05:01:08;13.95;;;3.63;;
28934;SDS011;16044;52.726;-2.108;2023-08-20T05:03:39;15.30;;;3.83;;
28934;SDS011;16044;52.726;-2.108;2023-08-20T05:06:09;15.85;;;3.60;;
28934;SDS011;16044;52.726;-2.108;2023-08-20T05:08:40;16.33;;;3.65;;
28934;SDS011;16044;52.726;-2.108;2023-08-20T05:11:11;12.95;;;3.35;;
28934;SDS011;16044;52.726;-2.108;2023-08-20T05:13:41;16.58;;;3.45;;
28934;SDS011;16044;52.726;-2.108;2023-08-20T05:16:14;15.05;;;3.50;;
28934;SDS011;16044;52.726;-2.108;2023-08-20T05:18:44;23.77;;;3.72;;
28934;SDS011;16044;52.726;-2.108;2023-08-20T05:21:14;15.77;;;3.55;;
28934;SDS011;16044;52.726;-2.108;2023-08-20T05:23:45;19.40;;;3.55;;
28934;SDS011;16044;52.726;-2.108;2023-08-20T05:26:15;15.75;;;3.97;;
28934;SDS011;16044;52.726;-2.108;2023-08-20T05:28:45;22.27;;;4.22;;
28934;SDS011;16044;52.726;-2.108;2023-08-20T05:31:18;18.15;;;3.45;;
28934;SDS011;16044;52.726;-2.108;2023-08-20T05:33:49;18.60;;;3.50;;
28934;SDS011;16044;52.726;-2.108;2023-08-20T05:36:19;16.75;;;3.60;;
28934;SDS011;16044;52.726;-2.108;2023-08-20T05:38:49;18.40;;;3.92;;
28934;SDS011;16044;52.726;-2.108;2023-08-20T05:41:20;16.65;;;3.90;;
28934;SDS011;16044;52.726;-2.108;2023-08-20T05:43:50;14.68;;;3.85;;
28934;SDS011;16044;52.726;-2.108;2023-08-20T05:46:23;19.02;;;4.18;;
28934;SDS011;16044;52.726;-2.108;2023-08-20T05:48:53;24.17;;;4.60;;
28934;SDS011;16044;52.726;-2.108;2023-08-20T05:51:24;16.55;;;3.80;;
28934;SDS011;16044;52.726;-2.108;2023-08-20T05:53:54;20.15;;;3.85;;
28934;SDS011;16044;52.726;-2.108;2023-08-20T05:56:24;18.17;;;3.50;;
28934;SDS011;16044;52.726;-2.108;2023-08-20T05:58:54;9.63;;;3.30;;
28934;SDS011;16044;52.726;-2.108;2023-08-20T06:01:27;13.10;;;3.55;;
28934;SDS011;16044;52.726;-2.108;2023-08-20T06:03:58;16.25;;;3.55;;
28934;SDS011;16044;52.726;-2.108;2023-08-20T06:06:29;15.20;;;3.83;;
28934;SDS011;16044;52.726;-2.108;2023-08-20T06:08:59;14.00;;;3.15;;
28934;SDS011;16044;52.726;-2.108;2023-08-20T06:11:35;15.48;;;3.28;;
28934;SDS011;16044;52.726;-2.108;2023-08-20T06:14:06;14.48;;;2.90;;
28934;SDS011;16044;52.726;-2.108;2023-08-20T06:16:39;14.57;;;3.53;;
28934;SDS011;16044;52.726;-2.108;2023-08-20T06:19:09;13.77;;;3.30;;
28934;SDS011;16044;52.726;-2.108;2023-08-20T06:21:39;14.68;;;3.58;;
28934;SDS011;16044;52.726;-2.108;2023-08-20T06:24:09;13.73;;;3.38;;
28934;SDS011;16044;52.726;-2.108;2023-08-20T06:26:40;19.50;;;4.10;;
28934;SDS011;16044;52.726;-2.108;2023-08-20T06:29:10;16.38;;;3.67;;
28934;SDS011;16044;52.726;-2.108;2023-08-20T06:31:45;16.55;;;3.80;;
28934;SDS011;16044;52.726;-2.108;2023-08-20T06:34:15;16.17;;;3.90;;
28934;SDS011;16044;52.726;-2.108;2023-08-20T06:36:46;18.80;;;3.40;;
28934;SDS011;16044;52.726;-2.108;2023-08-20T06:39:17;17.27;;;3.70;;
28934;SDS011;16044;52.726;-2.108;2023-08-20T06:41:47;18.38;;;3.60;;
28934;SDS011;16044;52.726;-2.108;2023-08-20T06:44:18;14.02;;;3.38;;
28934;SDS011;16044;52.726;-2.108;2023-08-20T06:46:51;15.82;;;3.17;;
28934;SDS011;16044;52.726;-2.108;2023-08-20T06:49:21;13.40;;;3.30;;
28934;SDS011;16044;52.726;-2.108;2023-08-20T06:51:51;19.55;;;4.45;;
28934;SDS011;16044;52.726;-2.108;2023-08-20T06:54:22;15.18;;;3.55;;
28934;SDS011;16044;52.726;-2.108;2023-08-20T06:56:52;17.80;;;3.40;;
28934;SDS011;16044;52.726;-2.108;2023-08-20T06:59:23;14.27;;;3.20;;
28934;SDS011;16044;52.726;-2.108;2023-08-20T07:01:56;17.13;;;3.63;;
28934;SDS011;16044;52.726;-2.108;2023-08-20T07:04:26;14.38;;;3.05;;
28934;SDS011;16044;52.726;-2.108;2023-08-20T07:06:57;13.20;;;3.47;;
28934;SDS011;16044;52.726;-2.108;2023-08-20T07:09:27;18.92;;;3.50;;
28934;SDS011;16044;52.726;-2.108;2023-08-20T07:11:58;15.25;;;3.20;;
28934;SDS011;16044;52.726;-2.108;2023-08-20T07:14:29;14.70;;;3.10;;
28934;SDS011;16044;52.726;-2.108;2023-08-20T07:17:02;10.45;;;2.97;;
28934;SDS011;16044;52.726;-2.108;2023-08-20T07:19:33;15.55;;;3.30;;
28934;SDS011;16044;52.726;-2.108;2023-08-20T07:22:03;11.35;;;3.10;;
28934;SDS011;16044;52.726;-2.108;2023-08-20T07:24:34;13.40;;;3.20;;
28934;SDS011;16044;52.726;-2.108;2023-08-20T07:27:04;16.85;;;3.35;;
28934;SDS011;16044;52.726;-2.108;2023-08-20T07:29:40;9.43;;;2.95;;
28934;SDS011;16044;52.726;-2.108;2023-08-20T07:32:14;13.23;;;3.13;;
28934;SDS011;16044;52.726;-2.108;2023-08-20T07:34:44;12.15;;;2.72;;
28934;SDS011;16044;52.726;-2.108;2023-08-20T07:37:14;10.55;;;3.17;;
28934;SDS011;16044;52.726;-2.108;2023-08-20T07:39:47;13.55;;;3.20;;
28934;SDS011;16044;52.726;-2.108;2023-08-20T07:42:17;12.98;;;2.75;;
28934;SDS011;16044;52.726;-2.108;2023-08-20T07:44:48;10.15;;;2.53;;
28934;SDS011;16044;52.726;-2.108;2023-08-20T07:47:20;10.70;;;2.70;;
28934;SDS011;16044;52.726;-2.108;2023-08-20T07:49:51;8.82;;;2.72;;
28934;SDS011;16044;52.726;-2.108;2023-08-20T07:52:21;12.05;;;2.90;;
28934;SDS011;16044;52.726;-2.108;2023-08-20T07:54:51;13.98;;;2.70;;
28934;SDS011;16044;52.726;-2.108;2023-08-20T07:57:22;10.55;;;2.92;;
28934;SDS011;16044;52.726;-2.108;2023-08-20T07:59:52;10.32;;;3.15;;
28934;SDS011;16044;52.726;-2.108;2023-08-20T08:02:25;8.10;;;2.40;;
28934;SDS011;16044;52.726;-2.108;2023-08-20T08:04:56;10.45;;;2.60;;
28934;SDS011;16044;52.726;-2.108;2023-08-20T08:07:26;10.48;;;2.75;;
28934;SDS011;16044;52.726;-2.108;2023-08-20T08:09:56;10.48;;;2.72;;
28934;SDS011;16044;52.726;-2.108;2023-08-20T08:12:26;11.10;;;2.47;;
28934;SDS011;16044;52.726;-2.108;2023-08-20T08:14:57;9.43;;;2.40;;
28934;SDS011;16044;52.726;-2.108;2023-08-20T08:17:29;12.07;;;2.50;;
28934;SDS011;16044;52.726;-2.108;2023-08-20T08:20:00;10.63;;;2.58;;
28934;SDS011;16044;52.726;-2.108;2023-08-20T08:22:31;10.27;;;2.78;;
28934;SDS011;16044;52.726;-2.108;2023-08-20T08:25:01;8.02;;;2.38;;
28934;SDS011;16044;52.726;-2.108;2023-08-20T08:27:32;9.32;;;2.35;;
28934;SDS011;16044;52.726;-2.108;2023-08-20T08:30:22;10.15;;;2.47;;
28934;SDS011;16044;52.726;-2.108;2023-08-20T08:32:56;7.07;;;2.40;;
28934;SDS011;16044;52.726;-2.108;2023-08-20T08:35:28;12.60;;;2.85;;
28934;SDS011;16044;52.726;-2.108;2023-08-20T08:37:59;10.40;;;2.70;;
28934;SDS011;16044;52.726;-2.108;2023-08-20T08:40:30;13.85;;;2.83;;
28934;SDS011;16044;52.726;-2.108;2023-08-20T08:43:01;12.05;;;3.22;;
28934;SDS011;16044;52.726;-2.108;2023-08-20T08:45:32;11.80;;;2.80;;
28934;SDS011;16044;52.726;-2.108;2023-08-20T08:48:06;16.52;;;2.80;;
28934;SDS011;16044;52.726;-2.108;2023-08-20T08:50:36;7.45;;;2.50;;
28934;SDS011;16044;52.726;-2.108;2023-08-20T08:53:07;11.38;;;2.78;;
28934;SDS011;16044;52.726;-2.108;2023-08-20T08:55:39;11.50;;;2.47;;
28934;SDS011;16044;52.726;-2.108;2023-08-20T08:58:09;10.65;;;2.67;;
28934;SDS011;16044;52.726;-2.108;2023-08-20T09:00:40;11.32;;;2.47;;
28934;SDS011;16044;52.726;-2.108;2023-08-20T09:03:13;10.45;;;2.13;;
28934;SDS011;16044;52.726;-2.108;2023-08-20T09:05:46;8.07;;;1.90;;
28934;SDS011;16044;52.726;-2.108;2023-08-20T09:08:21;8.68;;;2.25;;
28934;SDS011;16044;52.726;-2.108;2023-08-20T09:10:53;7.85;;;2.10;;
28934;SDS011;16044;52.726;-2.108;2023-08-20T09:13:26;13.57;;;2.80;;
28934;SDS011;16044;52.726;-2.108;2023-08-20T09:16:04;10.60;;;2.58;;
28934;SDS011;16044;52.726;-2.108;2023-08-20T09:18:40;8.00;;;2.20;;
28934;SDS011;16044;52.726;-2.108;2023-08-20T09:21:12;8.00;;;2.13;;
28934;SDS011;16044;52.726;-2.108;2023-08-20T09:23:45;8.32;;;2.10;;
28934;SDS011;16044;52.726;-2.108;2023-08-20T09:26:16;8.57;;;2.42;;
28934;SDS011;16044;52.726;-2.108;2023-08-20T09:28:46;8.73;;;2.20;;
28934;SDS011;16044;52.726;-2.108;2023-08-20T09:31:17;7.00;;;2.45;;
28934;SDS011;16044;52.726;-2.108;2023-08-20T09:33:53;7.50;;;2.40;;
28934;SDS011;16044;52.726;-2.108;2023-08-20T09:36:29;8.00;;;2.25;;
28934;SDS011;16044;52.726;-2.108;2023-08-20T09:39:02;11.80;;;2.47;;
28934;SDS011;16044;52.726;-2.108;2023-08-20T09:41:32;7.20;;;2.10;;
28934;SDS011;16044;52.726;-2.108;2023-08-20T09:44:05;7.93;;;2.00;;
28934;SDS011;16044;52.726;-2.108;2023-08-20T09:46:37;6.35;;;2.00;;
28934;SDS011;16044;52.726;-2.108;2023-08-20T09:49:12;5.88;;;2.05;;
28934;SDS011;16044;52.726;-2.108;2023-08-20T09:51:47;7.47;;;2.17;;
28934;SDS011;16044;52.726;-2.108;2023-08-20T09:54:23;7.57;;;2.33;;
28934;SDS011;16044;52.726;-2.108;2023-08-20T09:57:00;7.00;;;2.13;;
28934;SDS011;16044;52.726;-2.108;2023-08-20T09:59:34;7.53;;;2.17;;
28934;SDS011;16044;52.726;-2.108;2023-08-20T10:02:05;7.60;;;2.40;;
28934;SDS011;16044;52.726;-2.108;2023-08-20T10:04:40;7.50;;;2.30;;
28934;SDS011;16044;52.726;-2.108;2023-08-20T10:07:11;6.25;;;2.22;;
28934;SDS011;16044;52.726;-2.108;2023-08-20T10:09:42;6.03;;;2.15;;
28934;SDS011;16044;52.726;-2.108;2023-08-20T10:12:16;6.72;;;2.28;;
28934;SDS011;16044;52.726;-2.108;2023-08-20T10:14:47;8.57;;;2.08;;
28934;SDS011;16044;52.726;-2.108;2023-08-20T10:17:18;7.18;;;1.85;;
28934;SDS011;16044;52.726;-2.108;2023-08-20T10:19:52;8.50;;;2.22;;
28934;SDS011;16044;52.726;-2.108;2023-08-20T10:22:22;4.32;;;1.70;;
28934;SDS011;16044;52.726;-2.108;2023-08-20T10:24:54;6.40;;;1.90;;
28934;SDS011;16044;52.726;-2.108;2023-08-20T10:27:28;6.60;;;2.05;;
28934;SDS011;16044;52.726;-2.108;2023-08-20T10:30:02;7.50;;;2.35;;
28934;SDS011;16044;52.726;-2.108;2023-08-20T10:32:48;7.47;;;2.10;;
28934;SDS011;16044;52.726;-2.108;2023-08-20T10:35:25;5.47;;;1.90;;
28934;SDS011;16044;52.726;-2.108;2023-08-20T10:38:03;13.07;;;2.78;;
28934;SDS011;16044;52.726;-2.108;2023-08-20T10:40:48;7.05;;;2.38;;
28934;SDS011;16044;52.726;-2.108;2023-08-20T10:43:29;8.15;;;2.28;;
28934;SDS011;16044;52.726;-2.108;2023-08-20T10:46:02;6.40;;;2.22;;
28934;SDS011;16044;52.726;-2.108;2023-08-20T10:48:37;6.25;;;2.10;;
28934;SDS011;16044;52.726;-2.108;2023-08-20T10:51:12;5.45;;;1.83;;
28934;SDS011;16044;52.726;-2.108;2023-08-20T10:53:48;6.65;;;2.05;;
28934;SDS011;16044;52.726;-2.108;2023-08-20T10:56:40;7.70;;;2.20;;
28934;SDS011;16044;52.726;-2.108;2023-08-20T10:59:16;11.95;;;2.53;;
28934;SDS011;16044;52.726;-2.108;2023-08-20T11:01:50;7.57;;;2.40;;
28934;SDS011;16044;52.726;-2.108;2023-08-20T11:04:23;7.55;;;2.20;;
28934;SDS011;16044;52.726;-2.108;2023-08-20T11:06:57;6.63;;;2.10;;
28934;SDS011;16044;52.726;-2.108;2023-08-20T11:09:29;5.72;;;1.88;;
28934;SDS011;16044;52.726;-2.108;2023-08-20T11:12:00;6.38;;;2.20;;
28934;SDS011;16044;52.726;-2.108;2023-08-20T11:14:30;10.50;;;2.45;;
28934;SDS011;16044;52.726;-2.108;2023-08-20T11:17:00;6.20;;;1.83;;
28934;SDS011;16044;52.726;-2.108;2023-08-20T11:19:31;7.38;;;2.00;;
28934;SDS011;16044;52.726;-2.108;2023-08-20T11:22:04;6.07;;;1.85;;
28934;SDS011;16044;52.726;-2.108;2023-08-20T11:24:35;4.53;;;1.60;;
28934;SDS011;16044;52.726;-2.108;2023-08-20T11:27:05;6.60;;;1.80;;
28934;SDS011;16044;52.726;-2.108;2023-08-20T11:29:36;6.50;;;2.22;;
28934;SDS011;16044;52.726;-2.108;2023-08-20T11:32:08;7.55;;;2.25;;
28934;SDS011;16044;52.726;-2.108;2023-08-20T11:34:39;4.90;;;1.70;;
28934;SDS011;16044;52.726;-2.108;2023-08-20T11:37:12;7.07;;;2.10;;
28934;SDS011;16044;52.726;-2.108;2023-08-20T11:39:42;5.97;;;1.95;;
28934;SDS011;16044;52.726;-2.108;2023-08-20T11:42:12;7.45;;;2.22;;
28934;SDS011;16044;52.726;-2.108;2023-08-20T11:44:43;4.93;;;2.03;;
28934;SDS011;16044;52.726;-2.108;2023-08-20T11:47:16;6.10;;;2.17;;
28934;SDS011;16044;52.726;-2.108;2023-08-20T11:49:46;7.38;;;2.00;;
28934;SDS011;16044;52.726;-2.108;2023-08-20T11:52:20;4.70;;;2.05;;
28934;SDS011;16044;52.726;-2.108;2023-08-20T11:54:51;6.30;;;2.00;;
28934;SDS011;16044;52.726;-2.108;2023-08-20T11:57:21;5.28;;;2.00;;
28934;SDS011;16044;52.726;-2.108;2023-08-20T11:59:51;5.68;;;1.90;;
28934;SDS011;16044;52.726;-2.108;2023-08-20T12:02:24;6.05;;;1.92;;
28934;SDS011;16044;52.726;-2.108;2023-08-20T12:05:06;5.43;;;2.00;;
28934;SDS011;16044;52.726;-2.108;2023-08-20T12:07:39;6.68;;;2.42;;
28934;SDS011;16044;52.726;-2.108;2023-08-20T12:10:19;5.65;;;2.25;;
28934;SDS011;16044;52.726;-2.108;2023-08-20T12:12:50;7.55;;;2.28;;
28934;SDS011;16044;52.726;-2.108;2023-08-20T12:15:22;6.13;;;2.50;;
28934;SDS011;16044;52.726;-2.108;2023-08-20T12:17:57;6.88;;;2.75;;
28934;SDS011;16044;52.726;-2.108;2023-08-20T12:23:06;4.97;;;2.08;;
28934;SDS011;16044;52.726;-2.108;2023-08-20T12:25:36;5.88;;;2.17;;
28934;SDS011;16044;52.726;-2.108;2023-08-20T12:28:07;5.68;;;2.47;;
28934;SDS011;16044;52.726;-2.108;2023-08-20T12:30:37;5.95;;;2.20;;
28934;SDS011;16044;52.726;-2.108;2023-08-20T12:33:08;5.63;;;2.17;;
28934;SDS011;16044;52.726;-2.108;2023-08-20T12:35:38;5.35;;;2.10;;
28934;SDS011;16044;52.726;-2.108;2023-08-20T12:38:11;5.63;;;2.15;;
28934;SDS011;16044;52.726;-2.108;2023-08-20T12:40:42;4.57;;;1.90;;
28934;SDS011;16044;52.726;-2.108;2023-08-20T12:43:13;5.65;;;2.28;;
28934;SDS011;16044;52.726;-2.108;2023-08-20T12:45:43;6.15;;;1.73;;
28934;SDS011;16044;52.726;-2.108;2023-08-20T12:48:14;4.55;;;1.95;;
28934;SDS011;16044;52.726;-2.108;2023-08-20T12:50:44;4.10;;;1.67;;
28934;SDS011;16044;52.726;-2.108;2023-08-20T12:53:17;3.95;;;1.52;;
28934;SDS011;16044;52.726;-2.108;2023-08-20T12:55:47;7.68;;;1.90;;
28934;SDS011;16044;52.726;-2.108;2023-08-20T12:58:18;6.10;;;1.98;;
28934;SDS011;16044;52.726;-2.108;2023-08-20T13:00:48;4.55;;;1.83;;
28934;SDS011;16044;52.726;-2.108;2023-08-20T13:03:19;7.85;;;2.28;;
28934;SDS011;16044;52.726;-2.108;2023-08-20T13:05:50;4.55;;;1.90;;
28934;SDS011;16044;52.726;-2.108;2023-08-20T13:08:26;4.68;;;1.80;;
28934;SDS011;16044;52.726;-2.108;2023-08-20T13:10:58;4.32;;;1.73;;
28934;SDS011;16044;52.726;-2.108;2023-08-20T13:13:31;4.95;;;1.70;;
28934;SDS011;16044;52.726;-2.108;2023-08-20T13:16:03;6.35;;;2.05;;
28934;SDS011;16044;52.726;-2.108;2023-08-20T13:18:35;9.15;;;2.22;;
28934;SDS011;16044;52.726;-2.108;2023-08-20T13:21:06;5.43;;;2.17;;
28934;SDS011;16044;52.726;-2.108;2023-08-20T13:23:39;6.40;;;1.95;;
28934;SDS011;16044;52.726;-2.108;2023-08-20T13:26:11;5.68;;;2.45;;
28934;SDS011;16044;52.726;-2.108;2023-08-20T13:28:41;3.60;;;1.92;;
28934;SDS011;16044;52.726;-2.108;2023-08-20T13:31:11;3.75;;;1.75;;
28934;SDS011;16044;52.726;-2.108;2023-08-20T13:33:42;5.40;;;1.63;;
28934;SDS011;16044;52.726;-2.108;2023-08-20T13:36:12;5.78;;;2.10;;
28934;SDS011;16044;52.726;-2.108;2023-08-20T13:38:45;5.05;;;2.30;;
28934;SDS011;16044;52.726;-2.108;2023-08-20T13:41:15;6.13;;;2.53;;
28934;SDS011;16044;52.726;-2.108;2023-08-20T13:43:46;5.53;;;2.38;;
28934;SDS011;16044;52.726;-2.108;2023-08-20T13:46:16;5.85;;;2.22;;
28934;SDS011;16044;52.726;-2.108;2023-08-20T13:48:47;4.03;;;2.00;;
28934;SDS011;16044;52.726;-2.108;2023-08-20T13:51:17;5.90;;;2.05;;
28934;SDS011;16044;52.726;-2.108;2023-08-20T13:53:50;6.25;;;2.30;;
28934;SDS011;16044;52.726;-2.108;2023-08-20T13:56:21;3.95;;;2.00;;
28934;SDS011;16044;52.726;-2.108;2023-08-20T13:58:52;5.63;;;1.70;;
28934;SDS011;16044;52.726;-2.108;2023-08-20T14:01:22;5.13;;;1.65;;
28934;SDS011;16044;52.726;-2.108;2023-08-20T14:03:53;3.45;;;1.40;;
28934;SDS011;16044;52.726;-2.108;2023-08-20T14:06:23;3.97;;;1.33;;
28934;SDS011;16044;52.726;-2.108;2023-08-20T14:08:57;5.68;;;1.67;;
28934;SDS011;16044;52.726;-2.108;2023-08-20T14:11:27;4.55;;;1.38;;
28934;SDS011;16044;52.726;-2.108;2023-08-20T14:13:58;3.67;;;1.30;;
28934;SDS011;16044;52.726;-2.108;2023-08-20T14:16:28;5.70;;;1.45;;
28934;SDS011;16044;52.726;-2.108;2023-08-20T14:18:58;3.08;;;1.27;;
28934;SDS011;16044;52.726;-2.108;2023-08-20T14:21:29;4.50;;;1.20;;
28934;SDS011;16044;52.726;-2.108;2023-08-20T14:24:02;4.10;;;1.27;;
28934;SDS011;16044;52.726;-2.108;2023-08-20T14:26:33;5.05;;;1.40;;
28934;SDS011;16044;52.726;-2.108;2023-08-20T14:29:03;3.60;;;1.42;;
28934;SDS011;16044;52.726;-2.108;2023-08-20T14:31:33;4.47;;;1.40;;
28934;SDS011;16044;52.726;-2.108;2023-08-20T14:34:04;3.92;;;1.38;;
28934;SDS011;16044;52.726;-2.108;2023-08-20T14:36:34;4.60;;;1.58;;
28934;SDS011;16044;52.726;-2.108;2023-08-20T14:39:07;4.40;;;1.50;;
28934;SDS011;16044;52.726;-2.108;2023-08-20T14:41:38;9.20;;;2.00;;
28934;SDS011;16044;52.726;-2.108;2023-08-20T14:44:08;4.55;;;1.60;;
28934;SDS011;16044;52.726;-2.108;2023-08-20T14:46:38;4.70;;;1.90;;
28934;SDS011;16044;52.726;-2.108;2023-08-20T14:49:09;3.70;;;1.50;;
28934;SDS011;16044;52.726;-2.108;2023-08-20T14:51:39;3.58;;;1.45;;
28934;SDS011;16044;52.726;-2.108;2023-08-20T14:54:12;5.38;;;2.10;;
28934;SDS011;16044;52.726;-2.108;2023-08-20T14:56:43;8.82;;;3.95;;
28934;SDS011;16044;52.726;-2.108;2023-08-20T14:59:14;6.15;;;2.03;;